Time;durP1;ratioP1;P1;durP2;ratioP2;P2;SDS_P1;SDS_P2;PMS_P1;PMS_P2;Temp;Humidity;BMP_temperature;BMP_pressure;BME280_temperature;BME280_humidity;BME280_pressure;Samples;Min_cycle;Max_cycle;Signal;HPM_P1;HPM_P2
2022/03/20 00:02:24;;;;;;;;;;;;;;;20.94;37.40;103152.75;5069184;28;19967;-76
2022/03/20 00:04:50;;;;;;;;;;;;;;;20.94;37.45;103146.41;5035767;28;20017;-76
2022/03/20 00:07:15;;;;;;;;;;;;;;;20.94;37.29;103140.91;5053645;28;19928;-75
2022/03/20 00:09:41;;;;;;;;;;;;;;;20.95;37.60;103139.84;5035745;28;19921;-76
2022/03/20 00:12:06;;;;;;;;;;;;;;;20.95;37.48;103140.66;5053736;28;19921;-76
2022/03/20 00:14:31;;;;;;;;;;;;;;;20.94;37.37;103129.91;5036517;28;19936;-76
2022/03/20 00:16:56;;;;;;;;;;;;;;;20.94;37.27;103138.16;5066604;28;19971;-76
2022/03/20 00:19:22;;;;;;;;;;;;;;;20.94;37.30;103138.16;5053923;28;19921;-75
2022/03/20 00:21:47;;;;;;;;;;;;;;;20.94;37.03;103128.03;5069023;28;19984;-76
2022/03/20 00:24:12;;;;;;;;;;;;;;;20.93;37.10;103125.53;5053556;28;19944;-76
2022/03/20 00:26:39;;;;;;;;;;;;;;;20.92;37.10;103124.69;5053535;28;19921;-75
2022/03/20 00:29:06;;;;;;;;;;;;;;;20.93;37.24;103111.78;5054087;28;19932;-76
2022/03/20 00:31:33;;;;;;;;;;;;;;;20.92;37.14;103108.22;5068696;28;19958;-77
2022/03/20 00:33:58;;;;;;;;;;;;;;;20.91;37.13;103109.28;5068822;28;19950;-76
2022/03/20 00:36:24;;;;;;;;;;;;;;;20.90;37.18;103112.31;5053465;28;19943;-76
2022/03/20 00:38:49;;;;;;;;;;;;;;;20.90;36.92;103104.88;5053270;28;19967;-76
2022/03/20 00:41:14;;;;;;;;;;;;;;;20.89;37.24;103100.47;5053266;28;19946;-76
2022/03/20 00:43:39;;;;;;;;;;;;;;;20.88;37.08;103090.56;5068946;28;19960;-76
2022/03/20 00:46:04;;;;;;;;;;;;;;;20.88;36.99;103093.31;5068931;28;19943;-76
2022/03/20 00:48:30;;;;;;;;;;;;;;;20.88;36.99;103084.25;5056018;28;19924;-77
2022/03/20 00:50:55;;;;;;;;;;;;;;;20.88;37.08;103078.75;5072391;28;19958;-76
2022/03/20 00:53:20;;;;;;;;;;;;;;;20.87;37.07;103071.59;5057020;28;19945;-76
2022/03/20 00:55:45;;;;;;;;;;;;;;;20.86;36.99;103064.44;5072476;28;19942;-76
2022/03/20 00:58:12;;;;;;;;;;;;;;;20.86;36.95;103056.19;5056918;28;19972;-76
2022/03/20 01:00:37;;;;;;;;;;;;;;;20.85;37.01;103055.38;5071845;28;20323;-76
2022/03/20 01:03:02;;;;;;;;;;;;;;;20.85;36.83;103055.38;5056876;28;19925;-76
2022/03/20 01:05:28;;;;;;;;;;;;;;;20.86;36.88;103050.69;5071865;28;19946;-76
2022/03/20 01:07:53;;;;;;;;;;;;;;;20.84;37.03;103048.22;5056662;28;19925;-76
2022/03/20 01:10:19;;;;;;;;;;;;;;;20.83;37.02;103040.22;5056367;28;20386;-76
2022/03/20 01:12:44;;;;;;;;;;;;;;;20.83;36.80;103046.56;5056771;28;19954;-76
2022/03/20 01:15:11;;;;;;;;;;;;;;;20.83;36.95;103048.47;5056761;28;19942;-76
2022/03/20 01:17:37;;;;;;;;;;;;;;;20.81;37.14;103034.97;5056870;28;19953;-76
2022/03/20 01:20:04;;;;;;;;;;;;;;;20.82;36.90;103038.59;5056233;28;20323;-76
2022/03/20 01:22:30;;;;;;;;;;;;;;;20.82;37.03;103036.66;5056242;28;19942;-76
2022/03/20 01:24:55;;;;;;;;;;;;;;;20.81;37.04;103031.41;5057046;28;20007;-76
2022/03/20 01:27:20;;;;;;;;;;;;;;;20.80;36.88;103025.09;5056613;28;19950;-76
2022/03/20 01:29:45;;;;;;;;;;;;;;;20.81;36.81;103023.16;5056357;28;19920;-76
2022/03/20 01:32:11;;;;;;;;;;;;;;;20.80;37.03;103016.03;5055333;28;20395;-77
2022/03/20 01:34:37;;;;;;;;;;;;;;;20.79;36.86;103014.34;5071854;28;20392;-77
2022/03/20 01:37:02;;;;;;;;;;;;;;;20.79;36.86;103012.47;5056230;28;19938;-76
2022/03/20 01:39:27;;;;;;;;;;;;;;;20.79;36.59;103003.38;5056336;28;19924;-76
2022/03/20 01:41:53;;;;;;;;;;;;;;;20.77;36.92;102998.16;5056234;28;20369;-76
2022/03/20 01:44:18;;;;;;;;;;;;;;;20.77;36.84;103002.81;5056451;28;19921;-78
2022/03/20 01:46:43;;;;;;;;;;;;;;;20.75;36.84;102987.41;5056400;28;19921;-76
2022/03/20 01:49:09;;;;;;;;;;;;;;;20.77;37.04;102983.59;5071330;28;19950;-76
2022/03/20 01:54:20;;;;;;;;;;;;;;;20.74;36.66;102976.69;5055773;28;19924;-78
2022/03/20 01:56:48;;;;;;;;;;;;;;;20.73;36.80;102967.59;5055894;28;19944;-76
2022/03/20 01:59:14;;;;;;;;;;;;;;;20.74;36.93;102965.72;5055148;28;20005;-76
2022/03/20 02:01:39;;;;;;;;;;;;;;;20.72;36.94;102965.94;5038299;28;19952;-76
2022/03/20 02:04:05;;;;;;;;;;;;;;;20.71;36.81;102961.56;5056084;28;19927;-76
2022/03/20 02:06:30;;;;;;;;;;;;;;;20.71;36.78;102964.31;5056020;28;19917;-76
2022/03/20 02:08:56;;;;;;;;;;;;;;;20.71;36.81;102960.72;5055818;28;19921;-76
2022/03/20 02:11:22;;;;;;;;;;;;;;;20.71;37.00;102967.06;5037446;28;20005;-78
2022/03/20 02:13:48;;;;;;;;;;;;;;;20.70;36.76;102959.06;5055365;28;20006;-76
2022/03/20 02:16:13;;;;;;;;;;;;;;;20.69;37.02;102971.97;5070947;28;19964;-76
2022/03/20 02:18:39;;;;;;;;;;;;;;;20.68;36.91;102950.25;5071658;28;19975;-76
2022/03/20 02:21:04;;;;;;;;;;;;;;;20.69;36.93;102955.50;5037592;28;19949;-76
2022/03/20 02:23:34;;;;;;;;;;;;;;;20.68;37.06;102955.72;5055811;28;19917;-77
2022/03/20 02:26:00;;;;;;;;;;;;;;;20.67;36.82;102943.09;5053154;28;20020;-77
2022/03/20 02:28:26;;;;;;;;;;;;;;;20.65;36.86;102943.34;5055751;28;19921;-76
2022/03/20 02:30:51;;;;;;;;;;;;;;;20.65;36.83;102940.59;5037563;28;20001;-76
2022/03/20 02:33:18;;;;;;;;;;;;;;;20.65;36.85;102935.09;5055276;28;19953;-76
2022/03/20 02:35:44;;;;;;;;;;;;;;;20.64;36.78;102927.16;5037208;28;20362;-77
2022/03/20 02:38:10;;;;;;;;;;;;;;;20.63;37.00;102926.28;5055404;28;19936;-76
2022/03/20 02:40:35;;;;;;;;;;;;;;;20.63;36.95;102923.53;5037430;28;19925;-77
2022/03/20 02:43:01;;;;;;;;;;;;;;;20.63;36.80;102917.22;5070378;28;20427;-76
2022/03/20 02:45:30;;;;;;;;;;;;;;;20.62;37.02;102916.41;5054895;28;19939;-76
2022/03/20 02:47:56;;;;;;;;;;;;;;;20.62;37.15;102913.66;5054864;28;19917;-76
2022/03/20 02:50:29;;;;;;;;;;;;;;;20.62;36.71;102918.34;5070596;28;19960;-76
2022/03/20 02:52:56;;;;;;;;;;;;;;;20.61;36.86;102917.47;5055204;28;19930;-76
2022/03/20 02:55:23;;;;;;;;;;;;;;;20.60;37.00;102907.59;5054952;28;20406;-76
2022/03/20 02:57:48;;;;;;;;;;;;;;;20.60;37.13;102904.84;5054715;28;19923;-77
2022/03/20 03:00:17;;;;;;;;;;;;;;;20.59;37.02;102902.34;5054744;28;20019;-76
2022/03/20 03:02:45;;;;;;;;;;;;;;;20.58;36.78;102907.03;5036473;28;19917;-76
2022/03/20 03:05:15;;;;;;;;;;;;;;;20.59;36.75;102905.94;5069733;28;19981;-76
2022/03/20 03:13:09;;;;;;;;;;;;;;;20.56;37.07;102895.47;5054582;28;19946;-76
2022/03/20 03:15:35;;;;;;;;;;;;;;;20.56;37.06;102891.88;5055219;28;19943;-76
2022/03/20 03:18:00;;;;;;;;;;;;;;;20.55;36.79;102896.56;5054208;28;20013;-76
2022/03/20 03:20:26;;;;;;;;;;;;;;;20.55;36.93;102882.81;5036009;28;19933;-78
2022/03/20 03:22:51;;;;;;;;;;;;;;;20.55;36.82;102884.75;5036845;28;19920;-77
2022/03/20 03:25:17;;;;;;;;;;;;;;;20.54;36.84;102875.66;5054522;28;19921;-76
2022/03/20 03:27:42;;;;;;;;;;;;;;;20.54;36.78;102872.91;5036299;28;20077;-76
2022/03/20 03:30:07;;;;;;;;;;;;;;;20.53;36.96;102868.50;5054154;28;19954;-77
2022/03/20 03:32:33;;;;;;;;;;;;;;;20.52;36.88;102866.84;5054079;28;19921;-76
2022/03/20 03:37:43;;;;;;;;;;;;;;;20.52;36.83;102862.19;5054070;28;20052;-76
2022/03/20 03:40:09;;;;;;;;;;;;;;;20.51;36.77;102859.69;5054046;28;19956;-76
2022/03/20 03:42:35;;;;;;;;;;;;;;;20.49;36.88;102854.47;5035917;28;19961;-75
2022/03/20 03:45:01;;;;;;;;;;;;;;;20.50;36.73;102849.81;5054229;28;19917;-76
2022/03/20 03:47:27;;;;;;;;;;;;;;;20.49;36.77;102842.66;5053904;28;19921;-77
2022/03/20 03:49:53;;;;;;;;;;;;;;;20.48;36.78;102833.56;5053494;28;19933;-76
2022/03/20 03:52:19;;;;;;;;;;;;;;;20.49;36.97;102831.69;5069383;28;19925;-76
2022/03/20 03:54:44;;;;;;;;;;;;;;;20.49;36.93;102826.19;5053492;28;20415;-76
2022/03/20 03:57:09;;;;;;;;;;;;;;;20.48;36.76;102824.50;5053828;28;19916;-76
2022/03/20 03:59:35;;;;;;;;;;;;;;;20.47;36.83;102820.94;5053783;28;20290;-76
2022/03/20 04:02:01;;;;;;;;;;;;;;;20.47;37.06;102806.41;5053759;28;19979;-76
2022/03/20 04:04:27;;;;;;;;;;;;;;;20.46;36.87;102804.72;5035468;28;19952;-76
2022/03/20 04:06:52;;;;;;;;;;;;;;;20.46;36.84;102805.56;5035421;28;19943;-77
2022/03/20 04:09:17;;;;;;;;;;;;;;;20.47;36.74;102795.41;5035784;28;19991;-76
2022/03/20 04:11:42;;;;;;;;;;;;;;;20.45;37.07;102798.41;5052919;28;20037;-76
2022/03/20 04:14:08;;;;;;;;;;;;;;;20.45;36.90;102789.34;5069303;28;20304;-77
2022/03/20 04:16:33;;;;;;;;;;;;;;;20.44;36.86;102794.03;5053501;28;20383;-77
2022/03/20 04:18:59;;;;;;;;;;;;;;;20.43;37.02;102795.09;5053442;28;19921;-76
2022/03/20 04:21:24;;;;;;;;;;;;;;;20.44;36.91;102798.69;5035692;28;19938;-76
2022/03/20 04:23:49;;;;;;;;;;;;;;;20.43;36.81;102786.84;5072717;28;20018;-76
2022/03/20 04:26:22;;;;;;;;;;;;;;;20.42;36.67;102782.47;5057674;28;19971;-76
2022/03/20 04:28:49;;;;;;;;;;;;;;;20.43;36.74;102788.78;5039850;28;19954;-76
2022/03/20 04:31:17;;;;;;;;;;;;;;;20.42;36.91;102779.72;5057175;28;19956;-76
2022/03/20 04:33:43;;;;;;;;;;;;;;;20.41;36.75;102782.72;5057500;28;19924;-76
2022/03/20 04:36:09;;;;;;;;;;;;;;;20.42;36.83;102778.91;5057992;28;19917;-76
2022/03/20 04:38:35;;;;;;;;;;;;;;;20.42;36.89;102773.41;5072895;28;20331;-76
2022/03/20 04:41:00;;;;;;;;;;;;;;;20.41;36.67;102767.09;5058310;28;19943;-76
2022/03/20 04:43:27;;;;;;;;;;;;;;;20.41;37.00;102769.00;5073364;28;19921;-77
2022/03/20 04:45:52;;;;;;;;;;;;;;;20.40;36.83;102753.63;5056532;28;19920;-76
2022/03/20 04:59:13;;;;;;;;;;;;;;;20.36;36.80;102749.72;5057134;28;19927;-77
2022/03/20 05:01:39;;;;;;;;;;;;;;;20.36;36.72;102750.59;5056429;28;19921;-76
2022/03/20 05:04:04;;;;;;;;;;;;;;;20.36;36.78;102741.50;5072786;28;20345;-76
2022/03/20 05:06:30;;;;;;;;;;;;;;;20.36;36.92;102744.25;5056910;28;19934;-76
2022/03/20 05:13:19;;;;;;;;;;;;;;;20.36;36.65;102744.25;5056738;28;19932;-76
2022/03/20 05:14:24;;;;;;;;;;;;;;;20.34;37.02;102728.06;5056588;28;19958;-76
2022/03/20 05:16:52;;;;;;;;;;;;;;;20.35;36.86;102732.44;5056732;28;19928;-76
2022/03/20 05:19:18;;;;;;;;;;;;;;;20.34;36.95;102730.78;5057125;28;19916;-76
2022/03/20 05:21:43;;;;;;;;;;;;;;;20.34;36.78;102728.06;5056393;28;19954;-76
2022/03/20 05:24:11;;;;;;;;;;;;;;;20.33;36.98;102718.16;5056481;28;19953;-76
2022/03/20 05:26:36;;;;;;;;;;;;;;;20.32;36.71;102713.75;5054566;28;20011;-76
2022/03/20 05:29:02;;;;;;;;;;;;;;;20.32;36.75;102709.09;5055176;28;19974;-76
2022/03/20 05:31:27;;;;;;;;;;;;;;;20.32;36.87;102711.84;5056402;28;19920;-76
2022/03/20 05:33:52;;;;;;;;;;;;;;;20.31;36.90;102710.19;5055968;28;19942;-77
2022/03/20 05:36:18;;;;;;;;;;;;;;;20.31;36.77;102707.44;5071783;28;20009;-76
2022/03/20 05:38:44;;;;;;;;;;;;;;;20.31;36.67;102699.22;5054784;28;19942;-76
2022/03/20 05:43:53;;;;;;;;;;;;;;;20.30;36.69;102694.78;5056226;28;20411;-76
2022/03/20 05:46:18;;;;;;;;;;;;;;;20.29;36.87;102684.91;5056320;28;19936;-76
2022/03/20 05:48:43;;;;;;;;;;;;;;;20.30;36.72;102688.47;5056229;28;19931;-77
2022/03/20 05:51:08;;;;;;;;;;;;;;;20.28;36.81;102691.47;5056095;28;19951;-75
2022/03/20 05:53:33;;;;;;;;;;;;;;;20.28;36.66;102688.72;5056481;28;19977;-76
2022/03/20 05:58:42;;;;;;;;;;;;;;;20.28;36.82;102693.41;5056374;28;19952;-76
2022/03/20 06:01:08;;;;;;;;;;;;;;;20.27;36.68;102692.56;5071862;28;20303;-76
2022/03/20 06:03:34;;;;;;;;;;;;;;;20.28;36.69;102682.41;5071408;28;19932;-76
2022/03/20 06:05:59;;;;;;;;;;;;;;;20.27;36.71;102681.59;5055900;28;20351;-76
2022/03/20 06:08:24;;;;;;;;;;;;;;;20.26;36.69;102679.97;5055742;28;19936;-76
2022/03/20 06:10:50;;;;;;;;;;;;;;;20.26;36.70;102676.34;5071326;28;20389;-76
2022/03/20 06:13:16;;;;;;;;;;;;;;;20.26;36.70;102688.19;5037844;28;20356;-76
2022/03/20 06:15:41;;;;;;;;;;;;;;;20.25;36.59;102678.28;5055551;28;20391;-79
2022/03/20 06:18:06;;;;;;;;;;;;;;;20.25;36.62;102678.28;5037209;28;19971;-76
2022/03/20 06:20:35;;;;;;;;;;;;;;;20.25;36.78;102677.47;5055493;28;19975;-75
2022/03/20 06:23:01;;;;;;;;;;;;;;;20.24;36.65;102673.91;5055418;28;19921;-76
2022/03/20 06:25:26;;;;;;;;;;;;;;;20.24;36.52;102673.06;5037560;28;19940;-76
2022/03/20 06:27:52;;;;;;;;;;;;;;;20.24;36.83;102667.59;5054994;28;20034;-76
2022/03/20 06:30:19;;;;;;;;;;;;;;;20.23;36.70;102677.72;5055764;28;20011;-76
2022/03/20 06:32:45;;;;;;;;;;;;;;;20.22;36.65;102659.59;5054905;28;20023;-77
2022/03/20 06:35:11;;;;;;;;;;;;;;;20.22;36.76;102662.34;5054918;28;20331;-77
2022/03/20 06:37:41;;;;;;;;;;;;;;;20.22;36.82;102658.78;5037511;28;19917;-76
2022/03/20 06:40:07;;;;;;;;;;;;;;;20.21;36.63;102666.19;5055060;28;19979;-76
2022/03/20 06:42:32;;;;;;;;;;;;;;;20.21;36.57;102673.56;5055623;28;19943;-76
2022/03/20 06:44:58;;;;;;;;;;;;;;;20.22;36.67;102672.50;5054455;28;19948;-76
2022/03/20 06:47:24;;;;;;;;;;;;;;;20.20;36.67;102675.50;5054933;28;19939;-77
2022/03/20 06:49:49;;;;;;;;;;;;;;;20.20;36.69;102670.00;5070753;28;20037;-76
2022/03/20 06:52:14;;;;;;;;;;;;;;;20.20;36.64;102661.78;5054807;28;20437;-76
2022/03/20 06:54:40;;;;;;;;;;;;;;;20.19;36.65;102646.41;5037258;28;19987;-75
2022/03/20 06:57:05;;;;;;;;;;;;;;;20.19;36.55;102654.66;5054750;28;19921;-76
2022/03/20 06:59:30;;;;;;;;;;;;;;;20.19;36.60;102651.09;5054802;28;19916;-76
2022/03/20 07:01:55;;;;;;;;;;;;;;;20.19;36.51;102637.38;5054611;28;20279;-76
2022/03/20 07:04:21;;;;;;;;;;;;;;;20.18;36.68;102647.47;5054359;28;19928;-76
2022/03/20 07:06:46;;;;;;;;;;;;;;;20.17;36.58;102637.59;5054417;28;19927;-75
2022/03/20 07:09:12;;;;;;;;;;;;;;;20.17;36.77;102632.13;5054276;28;20080;-75
2022/03/20 07:11:37;;;;;;;;;;;;;;;20.16;36.63;102635.97;5053949;28;19970;-76
2022/03/20 07:14:03;;;;;;;;;;;;;;;20.17;36.65;102631.31;5036400;28;19960;-76
2022/03/20 07:16:31;;;;;;;;;;;;;;;20.17;36.77;102626.63;5054227;28;20385;-76
2022/03/20 07:18:56;;;;;;;;;;;;;;;20.17;36.59;102625.81;5037125;28;19927;-76
2022/03/20 07:21:22;;;;;;;;;;;;;;;20.16;36.86;102624.13;5036435;28;20045;-76
2022/03/20 07:23:47;;;;;;;;;;;;;;;20.15;36.60;102611.53;5053828;28;19967;-78
2022/03/20 07:31:40;;;;;;;;;;;;;;;20.14;36.54;102604.41;5054259;28;19957;-75
2022/03/20 07:34:06;;;;;;;;;;;;;;;20.15;36.65;102611.53;5054303;28;19917;-75
2022/03/20 07:36:31;;;;;;;;;;;;;;;20.14;36.58;102601.66;5053820;28;20387;-76
2022/03/20 07:38:56;;;;;;;;;;;;;;;20.13;36.63;102595.31;5069513;28;19927;-76
2022/03/20 07:41:21;;;;;;;;;;;;;;;20.13;36.76;102595.31;5054544;28;19917;-76
2022/03/20 07:43:47;;;;;;;;;;;;;;;20.13;36.54;102606.28;5054015;28;20019;-78
2022/03/20 07:46:12;;;;;;;;;;;;;;;20.13;36.63;102613.69;5053943;28;19975;-75
2022/03/20 07:48:39;;;;;;;;;;;;;;;20.12;36.61;102610.13;5053845;28;19994;-77
2022/03/20 07:51:05;;;;;;;;;;;;;;;20.12;36.73;102615.63;5053800;28;19961;-77
2022/03/20 07:53:31;;;;;;;;;;;;;;;20.12;36.53;102610.13;5069231;28;19921;-75
2022/03/20 07:55:56;;;;;;;;;;;;;;;20.11;36.65;102603.00;5053666;28;19950;-76
2022/03/20 07:58:22;;;;;;;;;;;;;;;20.12;36.83;102604.63;5053759;28;19939;-76
2022/03/20 08:00:47;;;;;;;;;;;;;;;20.12;36.56;102598.34;5036042;28;19938;-76
2022/03/20 08:03:13;;;;;;;;;;;;;;;20.11;36.62;102592.03;5069806;28;19963;-76
2022/03/20 08:05:38;;;;;;;;;;;;;;;20.10;36.57;102593.91;5054085;28;19927;-76
2022/03/20 08:08:04;;;;;;;;;;;;;;;20.11;36.61;102594.78;5053375;28;19947;-75
2022/03/20 08:10:30;;;;;;;;;;;;;;;20.10;36.62;102607.63;5053697;28;20406;-75
2022/03/20 08:12:55;;;;;;;;;;;;;;;20.10;36.56;102607.63;5052393;28;19925;-76
2022/03/20 08:15:20;;;;;;;;;;;;;;;20.10;36.61;102606.81;5069289;28;19920;-76
2022/03/20 08:17:46;;;;;;;;;;;;;;;20.10;36.78;102612.31;5054102;28;20360;-75
2022/03/20 08:20:12;;;;;;;;;;;;;;;20.10;36.61;102606.81;5035626;28;19979;-75
2022/03/20 08:22:37;;;;;;;;;;;;;;;20.10;36.57;102612.31;5053578;28;19921;-75
2022/03/20 08:25:03;;;;;;;;;;;;;;;20.09;36.69;102611.47;5053526;28;19970;-76
2022/03/20 08:27:29;;;;;;;;;;;;;;;20.09;36.78;102608.75;5035939;28;19924;-76
2022/03/20 08:29:55;;;;;;;;;;;;;;;20.09;36.62;102611.47;5053437;28;20276;-76
2022/03/20 08:32:22;;;;;;;;;;;;;;;20.09;36.69;102610.66;5053375;28;19958;-75
2022/03/20 08:34:47;;;;;;;;;;;;;;;20.09;36.72;102614.22;5068841;28;20303;-76
2022/03/20 08:37:14;;;;;;;;;;;;;;;20.09;36.72;102602.44;5053911;28;19973;-76
2022/03/20 08:39:39;;;;;;;;;;;;;;;20.08;36.65;102604.34;5053765;28;19942;-75
2022/03/20 08:42:05;;;;;;;;;;;;;;;20.08;36.85;102603.50;5052647;28;19925;-75
2022/03/20 08:44:31;;;;;;;;;;;;;;;20.09;36.62;102608.75;5053384;28;19961;-75
2022/03/20 08:46:56;;;;;;;;;;;;;;;20.08;36.64;102609.84;5068698;28;19935;-75
2022/03/20 08:49:21;;;;;;;;;;;;;;;20.08;36.60;102611.72;5054681;28;19939;-76
2022/03/20 08:51:47;;;;;;;;;;;;;;;20.07;36.88;102610.91;5054070;28;19991;-77
2022/03/20 08:54:12;;;;;;;;;;;;;;;20.09;36.70;102610.66;5054083;28;19969;-79
2022/03/20 08:56:38;;;;;;;;;;;;;;;20.08;36.75;102612.59;5054244;28;19961;-76
2022/03/20 08:59:04;;;;;;;;;;;;;;;20.09;36.69;102607.91;5054393;28;19917;-75
2022/03/20 09:01:30;;;;;;;;;;;;;;;20.09;36.75;102602.44;5069591;28;19949;-76
2022/03/20 09:03:55;;;;;;;;;;;;;;;20.08;36.94;102604.34;5053820;28;20388;-77
2022/03/20 09:06:21;;;;;;;;;;;;;;;20.09;37.02;102594.19;5068732;28;19941;-77
2022/03/20 09:08:47;;;;;;;;;;;;;;;20.09;36.84;102588.72;5054766;28;19928;-77
2022/03/20 09:11:12;;;;;;;;;;;;;;;20.09;36.83;102596.94;5056634;28;19989;-77
2022/03/20 09:13:37;;;;;;;;;;;;;;;20.09;36.72;102585.97;5056806;28;20430;-76
2022/03/20 09:18:59;;;;;;;;;;;;;;;20.10;36.63;102582.13;5057079;28;19955;-76
2022/03/20 09:21:24;;;;;;;;;;;;;;;20.10;36.85;102562.91;5069923;28;20344;-76
2022/03/20 09:23:50;;;;;;;;;;;;;;;20.10;37.10;102565.66;5056289;28;19931;-76
2022/03/20 09:26:15;;;;;;;;;;;;;;;20.10;37.06;102561.00;5056153;28;19916;-76
2022/03/20 09:28:40;;;;;;;;;;;;;;;20.11;37.01;102550.88;5071772;28;19935;-76
2022/03/20 09:31:08;;;;;;;;;;;;;;;20.12;36.97;102547.03;5038340;28;20410;-77
2022/03/20 09:33:33;;;;;;;;;;;;;;;20.12;37.03;102538.81;5056618;28;19924;-76
2022/03/20 09:35:59;;;;;;;;;;;;;;;20.14;36.95;102520.16;5056746;28;19921;-80
2022/03/20 09:38:26;;;;;;;;;;;;;;;20.16;37.04;102514.41;5072273;28;20007;-76
2022/03/20 09:40:51;;;;;;;;;;;;;;;20.18;37.11;102515.78;5038853;28;19978;-78
2022/03/20 09:43:17;;;;;;;;;;;;;;;20.20;36.95;102512.78;5055618;28;19975;-76
2022/03/20 09:45:43;;;;;;;;;;;;;;;20.21;37.12;102523.50;5056495;28;19927;-76
2022/03/20 09:48:08;;;;;;;;;;;;;;;20.23;37.10;102523.22;5055827;28;19931;-77
2022/03/20 09:50:34;;;;;;;;;;;;;;;20.24;37.35;102517.47;5071543;28;19927;-77
2022/03/20 09:52:59;;;;;;;;;;;;;;;20.26;37.42;102515.31;5056735;28;20294;-79
2022/03/20 09:55:25;;;;;;;;;;;;;;;20.28;37.48;102509.53;5056400;28;20319;-74
2022/03/20 09:57:54;;;;;;;;;;;;;;;20.29;37.38;102509.28;5071923;28;20326;-74
2022/03/20 10:00:20;;;;;;;;;;;;;;;20.29;37.30;102503.78;5055331;28;19942;-75
2022/03/20 10:02:45;;;;;;;;;;;;;;;20.31;37.32;102509.03;5055847;28;20450;-75
2022/03/20 10:05:10;;;;;;;;;;;;;;;20.32;37.59;102499.69;5055987;28;19931;-75
2022/03/20 10:07:42;;;;;;;;;;;;;;;20.35;37.36;102507.38;5055211;28;19962;-75
2022/03/20 10:10:12;;;;;;;;;;;;;;;20.38;37.28;102514.25;5055019;28;20284;-74
2022/03/20 10:12:41;;;;;;;;;;;;;;;20.39;37.37;102518.69;5055596;28;19917;-75
2022/03/20 10:15:09;;;;;;;;;;;;;;;20.40;37.41;102525.81;5055471;28;19917;-74
2022/03/20 10:17:35;;;;;;;;;;;;;;;20.41;37.57;102521.97;5055454;28;19931;-74
2022/03/20 10:20:16;;;;;;;;;;;;;;;20.40;37.34;102504.66;5054186;28;20293;-77
2022/03/20 10:22:42;;;;;;;;;;;;;;;20.42;37.45;102509.91;5055234;28;20268;-75
2022/03/20 10:25:08;;;;;;;;;;;;;;;20.43;37.38;102517.84;5055094;28;19954;-74
2022/03/20 10:27:34;;;;;;;;;;;;;;;20.44;37.25;102513.22;5055411;28;19928;-74
2022/03/20 10:30:00;;;;;;;;;;;;;;;20.44;37.39;102516.78;5071452;28;19934;-75
2022/03/20 10:32:25;;;;;;;;;;;;;;;20.46;37.40;102513.75;5036894;28;19974;-75
2022/03/20 10:34:50;;;;;;;;;;;;;;;20.46;37.42;102509.13;5054775;28;19995;-74
2022/03/20 10:37:17;;;;;;;;;;;;;;;20.47;37.26;102504.44;5054537;28;19917;-75
2022/03/20 10:39:42;;;;;;;;;;;;;;;20.47;37.23;102502.50;5054876;28;20421;-74
2022/03/20 10:42:15;;;;;;;;;;;;;;;20.48;37.26;102487.69;5054748;28;19931;-74
2022/03/20 10:44:41;;;;;;;;;;;;;;;20.49;37.30;102494.84;5054805;28;19916;-74
2022/03/20 10:47:13;;;;;;;;;;;;;;;20.51;37.25;102494.56;5054823;28;20284;-75
2022/03/20 10:49:44;;;;;;;;;;;;;;;20.52;37.40;102497.06;5036886;28;19917;-74
2022/03/20 10:52:10;;;;;;;;;;;;;;;20.53;37.42;102489.63;5054694;28;20379;-75
2022/03/20 10:54:40;;;;;;;;;;;;;;;20.54;37.45;102491.31;5054676;28;20007;-75
2022/03/20 10:57:06;;;;;;;;;;;;;;;20.55;37.26;102490.22;5054789;28;19917;-76
2022/03/20 10:59:32;;;;;;;;;;;;;;;20.57;37.15;102482.56;5055747;28;19928;-75
2022/03/20 11:01:58;;;;;;;;;;;;;;;20.59;37.16;102490.50;5054757;28;19927;-75
2022/03/20 11:04:24;;;;;;;;;;;;;;;20.59;37.38;102480.38;5054430;28;20415;-76
2022/03/20 11:06:50;;;;;;;;;;;;;;;20.60;37.33;102498.50;5055058;28;19938;-75
2022/03/20 11:09:15;;;;;;;;;;;;;;;20.61;37.26;102489.16;5036334;28;20036;-75
2022/03/20 11:11:44;;;;;;;;;;;;;;;20.62;37.45;102473.53;5054314;28;19990;-75
2022/03/20 11:14:10;;;;;;;;;;;;;;;20.63;37.06;102480.66;5054225;28;20030;-78
2022/03/20 11:16:37;;;;;;;;;;;;;;;20.64;37.30;102488.63;5036089;28;19944;-77
2022/03/20 11:19:04;;;;;;;;;;;;;;;20.65;37.38;102482.03;5054272;28;19951;-76
2022/03/20 11:21:29;;;;;;;;;;;;;;;20.66;37.29;102483.72;5053744;28;19938;-75
2022/03/20 11:23:55;;;;;;;;;;;;;;;20.67;37.35;102484.53;5053766;28;20300;-75
2022/03/20 11:26:21;;;;;;;;;;;;;;;20.69;37.12;102485.09;5052759;28;19960;-76
2022/03/20 11:28:49;;;;;;;;;;;;;;;20.70;37.24;102492.22;5070246;28;20030;-75
2022/03/20 11:31:15;;;;;;;;;;;;;;;20.72;37.12;102487.28;5052046;28;20026;-75
2022/03/20 11:33:42;;;;;;;;;;;;;;;20.72;37.23;102479.88;5053641;28;20293;-76
2022/03/20 11:36:07;;;;;;;;;;;;;;;20.73;37.27;102487.00;5054258;28;19917;-76
2022/03/20 11:38:35;;;;;;;;;;;;;;;20.75;37.17;102489.50;5053914;28;19967;-75
2022/03/20 11:41:09;;;;;;;;;;;;;;;20.75;37.03;102489.50;5069164;28;19975;-76
2022/03/20 11:43:35;;;;;;;;;;;;;;;20.77;37.30;102494.72;5053625;28;19954;-75
2022/03/20 11:46:13;;;;;;;;;;;;;;;20.78;37.25;102493.63;5036844;28;19920;-75
2022/03/20 11:48:38;;;;;;;;;;;;;;;20.78;37.31;102493.63;5054296;28;19939;-75
2022/03/20 11:51:03;;;;;;;;;;;;;;;20.79;37.03;102485.13;5054739;28;20374;-74
2022/03/20 11:53:29;;;;;;;;;;;;;;;20.80;37.20;102494.19;5054119;28;19923;-75
2022/03/20 11:55:54;;;;;;;;;;;;;;;20.81;37.17;102479.34;5053333;28;19958;-75
2022/03/20 11:58:24;;;;;;;;;;;;;;;20.82;37.26;102484.59;5053287;28;19935;-75
2022/03/20 12:01:06;;;;;;;;;;;;;;;20.83;37.16;102485.41;5053575;28;19923;-75
2022/03/20 12:03:43;;;;;;;;;;;;;;;20.84;37.03;102498.03;5053465;28;19987;-75
2022/03/20 12:06:30;;;;;;;;;;;;;;;20.85;37.14;102489.53;5053360;28;20075;-79
2022/03/20 12:09:14;;;;;;;;;;;;;;;20.86;37.30;102490.34;5053735;28;20044;-76
2022/03/20 12:11:42;;;;;;;;;;;;;;;20.87;37.26;102481.84;5053573;28;19990;-75
2022/03/20 12:14:13;;;;;;;;;;;;;;;20.87;37.21;102470.88;5053609;28;19928;-75
2022/03/20 12:16:48;;;;;;;;;;;;;;;20.88;37.20;102477.19;5052910;28;20080;-75
2022/03/20 12:19:14;;;;;;;;;;;;;;;20.89;37.17;102478.81;5052933;28;19971;-79
2022/03/20 12:21:52;;;;;;;;;;;;;;;20.90;37.11;102481.31;5053440;28;19933;-75
2022/03/20 12:24:36;;;;;;;;;;;;;;;20.91;37.19;102463.72;5053029;28;19951;-79
2022/03/20 12:27:19;;;;;;;;;;;;;;;20.92;37.23;102472.81;5035374;28;19985;-75
2022/03/20 12:29:45;;;;;;;;;;;;;;;20.93;37.04;102468.94;5035449;28;20312;-75
2022/03/20 12:32:12;;;;;;;;;;;;;;;20.93;37.37;102469.75;5053360;28;20414;-78
2022/03/20 12:34:38;;;;;;;;;;;;;;;20.94;37.24;102465.94;5053290;28;19917;-75
2022/03/20 12:37:37;;;;;;;;;;;;;;;20.95;37.28;102475.00;5053018;28;19923;-75
2022/03/20 12:40:02;;;;;;;;;;;;;;;20.96;36.87;102471.16;5020184;28;19931;-75
2022/03/20 12:42:29;;;;;;;;;;;;;;;20.96;37.03;102455.50;5035183;28;19945;-75
2022/03/20 12:44:54;;;;;;;;;;;;;;;20.97;37.06;102459.09;5056730;28;19966;-75
2022/03/20 12:47:20;;;;;;;;;;;;;;;20.98;37.07;102452.47;5056916;28;19924;-75
2022/03/20 12:50:05;;;;;;;;;;;;;;;20.99;37.16;102456.03;5056903;28;19950;-76
2022/03/20 12:52:32;;;;;;;;;;;;;;;21.00;37.08;102463.22;5056672;28;19977;-75
2022/03/20 12:54:58;;;;;;;;;;;;;;;20.99;37.13;102456.91;5057678;28;20386;-76
2022/03/20 12:57:43;;;;;;;;;;;;;;;21.01;37.08;102462.91;5057485;28;19943;-75
2022/03/20 13:00:12;;;;;;;;;;;;;;;21.01;37.06;102446.44;5057190;28;19938;-78
2022/03/20 13:03:00;;;;;;;;;;;;;;;21.03;37.17;102454.41;5039502;28;20425;-75
2022/03/20 13:05:29;;;;;;;;;;;;;;;21.02;37.27;102450.84;5056980;28;19928;-74
2022/03/20 13:07:55;;;;;;;;;;;;;;;21.03;37.04;102455.22;5038805;28;19917;-74
2022/03/20 13:10:25;;;;;;;;;;;;;;;21.04;37.30;102454.16;5038482;28;20445;-74
2022/03/20 13:12:58;;;;;;;;;;;;;;;21.05;37.31;102455.78;5056590;28;19916;-74